createdAt,value
2024-02-11T00:08:51.076Z,6.00
2024-02-11T00:18:55.832Z,5.90
2024-02-11T00:28:59.332Z,5.90
2024-02-11T00:39:04.939Z,5.80
2024-02-11T00:49:09.489Z,5.70
2024-02-11T00:59:17.471Z,5.70
2024-02-11T01:09:21.635Z,5.70
2024-02-11T01:19:26.393Z,5.50
2024-02-11T01:29:29.601Z,5.60
2024-02-11T01:39:34.255Z,5.70
2024-02-11T01:49:37.908Z,6.20
2024-02-11T01:59:42.573Z,5.90
2024-02-11T02:09:46.140Z,6.00
2024-02-11T02:19:52.799Z,5.90
2024-02-11T02:29:57.423Z,6.00
2024-02-11T02:40:00.866Z,6.10
2024-02-11T02:51:02.032Z,5.80
2024-02-11T03:01:06.920Z,5.80
2024-02-11T03:11:10.377Z,5.80
2024-02-11T03:21:16.352Z,5.40
2024-02-11T03:31:19.865Z,5.50
2024-02-11T03:41:25.092Z,5.50
2024-02-11T03:51:28.346Z,5.60
2024-02-11T04:01:35.157Z,5.60
2024-02-11T04:11:38.802Z,5.40
2024-02-11T04:21:43.536Z,5.40
2024-02-11T04:31:46.863Z,5.50
2024-02-11T04:41:52.119Z,5.80
2024-02-11T04:51:55.339Z,5.50
2024-02-11T05:02:00.132Z,5.40
2024-02-11T05:12:03.576Z,5.20
2024-02-11T05:22:10.133Z,5.50
2024-02-11T05:32:16.222Z,5.10
2024-02-11T05:42:20.978Z,5.80
2024-02-11T05:52:24.618Z,5.20
2024-02-11T06:02:29.199Z,5.30
2024-02-11T06:12:32.711Z,5.20
2024-02-11T06:22:37.498Z,5.20
2024-02-11T06:32:41.378Z,5.20
2024-02-11T06:42:48.501Z,5.50
2024-02-11T06:52:52.371Z,5.20
2024-02-11T07:03:02.177Z,5.40
2024-02-11T07:13:05.680Z,5.70
2024-02-11T07:23:10.604Z,5.70
2024-02-11T07:33:15.525Z,6.00
2024-02-11T07:43:20.334Z,6.00
2024-02-11T07:53:23.713Z,7.00
2024-02-11T08:03:28.556Z,6.40
2024-02-11T08:13:33.922Z,6.80
2024-02-11T08:23:39.269Z,6.40
2024-02-11T08:33:46.368Z,6.50
2024-02-11T08:43:51.961Z,6.60
2024-02-11T08:53:55.225Z,7.00
2024-02-11T09:04:01.411Z,6.70
2024-02-11T09:14:04.667Z,6.80
2024-02-11T09:24:11.393Z,6.80
2024-02-11T09:34:14.990Z,6.90
2024-02-11T09:44:26.862Z,7.50
2024-02-11T09:54:31.676Z,8.20
2024-02-11T10:04:37.749Z,8.80
2024-02-11T10:14:41.478Z,9.10
2024-02-11T10:24:46.786Z,9.20
2024-02-11T10:34:50.113Z,9.20
2024-02-11T10:44:55.617Z,9.50
2024-02-11T10:55:01.814Z,10.30
2024-02-11T11:05:11.241Z,10.10
2024-02-11T11:15:14.878Z,9.70
2024-02-11T11:25:21.761Z,9.90
2024-02-11T11:35:25.534Z,9.80
2024-02-11T11:45:32.848Z,9.60
2024-02-11T11:55:38.101Z,9.80
2024-02-11T12:05:43.280Z,9.60
2024-02-11T12:15:47.786Z,9.50
2024-02-11T12:25:56.635Z,9.60
2024-02-11T12:36:07.728Z,9.30
2024-02-11T12:46:12.437Z,9.50
2024-02-11T12:56:16.741Z,9.40
2024-02-11T13:06:21.409Z,9.30
2024-02-11T13:16:24.638Z,9.30
2024-02-11T13:26:29.788Z,9.10
2024-02-11T13:36:33.878Z,9.00
2024-02-11T13:46:38.565Z,8.90
2024-02-11T13:56:41.993Z,8.80
2024-02-11T14:06:47.697Z,8.30
2024-02-11T14:16:51.820Z,8.80
2024-02-11T14:26:57.586Z,8.50
2024-02-11T14:37:03.123Z,8.50
2024-02-11T14:47:08.404Z,8.40
2024-02-11T14:57:11.956Z,6.40
2024-02-11T15:07:16.513Z,8.00
2024-02-11T15:17:20.035Z,7.90
2024-02-11T15:27:25.839Z,7.70
2024-02-11T15:37:29.092Z,7.70
2024-02-11T15:47:33.934Z,7.40
2024-02-11T15:57:37.574Z,7.70
2024-02-11T16:07:44.147Z,7.10
2024-02-11T16:17:47.596Z,7.00
2024-02-11T16:27:52.352Z,7.00
2024-02-11T16:37:56.347Z,7.40
2024-02-11T16:48:01.175Z,6.90
2024-02-11T16:58:04.460Z,6.90
2024-02-11T17:08:11.108Z,6.80
2024-02-11T17:18:15.785Z,6.80
2024-02-11T17:28:20.711Z,6.70
2024-02-11T17:38:27.109Z,7.30
2024-02-11T17:48:32.011Z,6.60
2024-02-11T17:58:35.469Z,6.60
2024-02-11T18:08:41.542Z,6.60
2024-02-11T18:18:44.837Z,6.50
2024-02-11T18:28:50.029Z,6.50
2024-02-11T18:38:53.358Z,6.20
2024-02-11T18:48:58.041Z,6.30
2024-02-11T18:59:01.322Z,6.30
2024-02-11T19:09:08.032Z,6.30
2024-02-11T19:19:11.348Z,6.00
2024-02-11T19:29:16.100Z,5.90
2024-02-11T19:39:19.523Z,6.00
2024-02-11T19:49:25.353Z,6.00
2024-02-11T19:59:28.644Z,6.10
2024-02-11T20:09:36.304Z,6.00
2024-02-11T20:19:42.064Z,6.00
2024-02-11T20:29:46.726Z,5.90
2024-02-11T20:39:52.664Z,6.70
2024-02-11T20:49:57.432Z,5.90
2024-02-11T21:00:06.206Z,5.90
2024-02-11T21:10:12.508Z,6.00
2024-02-11T21:20:19.436Z,5.90
2024-02-11T21:30:24.276Z,5.80
2024-02-11T21:40:27.530Z,6.00
2024-02-11T21:50:32.176Z,5.90
2024-02-11T22:00:35.508Z,6.90
2024-02-11T22:10:40.762Z,5.90
2024-02-11T22:20:44.755Z,5.90
2024-02-11T22:30:49.449Z,6.00
2024-02-11T22:40:54.550Z,6.30
2024-02-11T22:50:59.288Z,5.90
2024-02-11T23:01:03.017Z,5.90
2024-02-11T23:11:19.796Z,5.80
2024-02-11T23:21:23.400Z,5.80
2024-02-11T23:31:28.930Z,5.80
2024-02-11T23:41:32.626Z,6.50
2024-02-11T23:51:37.936Z,5.80
